Airfield :
LOGIN :

Register | Disclaimer

   EN    FR    IT 

 










Legend :    VFR   Marginal VFR   IFR   Intensive IFR   Very Intensive IFR
Visi :
Ceiling :
>= 8 km
>= 3000ft
5 to 8 km
1000 to 3000 ft
1500m to 5 km
500 to 1000 ft
800 to 1500m
200 to 500 ft
< 800m
< 200 ft
Symbols :   Thunderstorms  Fog  Heavy snow  Heavy precipitations  Wind > 20 kt
SIGMETs :     Misc.  Thunderstorms  Icing  Turbulence  Mountain Waves  Volcanic Ashes






- Airport Elevation : 270 ft
- IATA code : OXF


EGTK - Oxford (Kidlington)

CURRENT METAR :
  • 241150Z 13003KT 9999 FEW010 SCT030 04/04 Q0995

EXPIRED METARs :
  • 241120Z VRB03KT 9999 FEW010 SCT023 03/03 Q0995
  • 241050Z 00000KT 6000 VCFG SCT002 02/02 Q0994
  • 241020Z VRB01KT 0500 R19/0750 FG OVC001 02/02 Q0994
  • 240950Z VRB02KT 0200 R19/0300 FG OVC001 01/01 Q0994
  • 240920Z 00000KT 0200 R19/0700 FZFG OVC001 M00/M00 Q0994
  • 240850Z VRB01KT 0150 R19/0225 FZFG OVC001 M01/M01 Q0993
  • 240820Z 09001KT 0100 R19/0200 FZFG OVC001 M01/M01 Q0993
  • 240750Z 00000KT 0200 R19/0250 FZFG OVC001 M01/M01 Q0993
  • 240720Z 07001KT 0150 R19/0225 FZFG OVC001 M02/M02 Q0993
  • 240650Z VRB01KT 0100 R19/0250 FZFG OVC001 M01/M02 Q0992

TAF TAF EGTK
Valid from the 24 at 12:00 until the 24 at 21:00 UTC


241053Z 2412/2421 21003KT 5000 BR BKN002
BECMG 2412/2413 9999 NSW FEW020
PROB40
TEMPO 2412/2418 7000 SHRA
PROB30 2419/2421 5000 BR MIFG



MET'MAP, your aeronautical weather chart ! - Copyright ORBIFLY December 2007 - Disclaimer

ORBIFLY MET'MAP TEAM :

Programming & Development : Alexandra Zaïnal
Original concept : Baudouin d'Aumeries
Technical & hardware support : Manuel Goepfert
Assistance : Marc-Olivier Méhu




SOURCES & CREDITS :

   NOAA